sensor_id;sensor_type;location;lat;lon;timestamp;P1;durP1;ratioP1;P2;durP2;ratioP2
27303;SDS011;14791;52.392;13.092;2022-11-15T00:01:31;14.33;;;13.13;;
27303;SDS011;14791;52.392;13.092;2022-11-15T00:04:18;14.70;;;13.40;;
27303;SDS011;14791;52.392;13.092;2022-11-15T00:07:05;11.60;;;10.70;;
27303;SDS011;14791;52.392;13.092;2022-11-15T00:09:52;11.17;;;10.33;;
27303;SDS011;14791;52.392;13.092;2022-11-15T00:12:38;11.97;;;11.03;;
27303;SDS011;14791;52.392;13.092;2022-11-15T00:15:25;10.27;;;9.57;;
27303;SDS011;14791;52.392;13.092;2022-11-15T00:18:12;11.20;;;10.40;;
27303;SDS011;14791;52.392;13.092;2022-11-15T00:21:09;14.43;;;13.13;;
27303;SDS011;14791;52.392;13.092;2022-11-15T00:23:53;12.13;;;11.23;;
27303;SDS011;14791;52.392;13.092;2022-11-15T00:26:40;13.33;;;12.27;;
27303;SDS011;14791;52.392;13.092;2022-11-15T00:29:27;11.57;;;10.67;;
27303;SDS011;14791;52.392;13.092;2022-11-15T00:32:14;11.93;;;11.03;;
27303;SDS011;14791;52.392;13.092;2022-11-15T00:35:01;11.30;;;10.40;;
27303;SDS011;14791;52.392;13.092;2022-11-15T00:37:48;11.70;;;10.80;;
27303;SDS011;14791;52.392;13.092;2022-11-15T00:40:35;14.03;;;12.87;;
27303;SDS011;14791;52.392;13.092;2022-11-15T00:43:21;14.17;;;13.07;;
27303;SDS011;14791;52.392;13.092;2022-11-15T00:46:09;14.17;;;13.07;;
27303;SDS011;14791;52.392;13.092;2022-11-15T00:48:56;11.37;;;10.57;;
27303;SDS011;14791;52.392;13.092;2022-11-15T00:51:43;15.10;;;13.70;;
27303;SDS011;14791;52.392;13.092;2022-11-15T00:54:30;12.30;;;11.30;;
27303;SDS011;14791;52.392;13.092;2022-11-15T00:57:17;14.20;;;13.03;;
27303;SDS011;14791;52.392;13.092;2022-11-15T01:00:04;13.30;;;12.20;;
27303;SDS011;14791;52.392;13.092;2022-11-15T01:02:54;10.97;;;10.17;;
27303;SDS011;14791;52.392;13.092;2022-11-15T01:05:40;14.40;;;13.10;;
27303;SDS011;14791;52.392;13.092;2022-11-15T01:08:27;10.57;;;9.77;;
27303;SDS011;14791;52.392;13.092;2022-11-15T01:11:14;12.23;;;11.23;;
27303;SDS011;14791;52.392;13.092;2022-11-15T01:14:01;13.13;;;12.10;;
27303;SDS011;14791;52.392;13.092;2022-11-15T01:16:47;12.40;;;11.33;;
27303;SDS011;14791;52.392;13.092;2022-11-15T01:19:34;13.73;;;12.63;;
27303;SDS011;14791;52.392;13.092;2022-11-15T01:22:21;12.17;;;11.20;;
27303;SDS011;14791;52.392;13.092;2022-11-15T01:25:08;11.23;;;10.33;;
27303;SDS011;14791;52.392;13.092;2022-11-15T01:27:55;10.93;;;10.13;;
27303;SDS011;14791;52.392;13.092;2022-11-15T01:30:42;11.13;;;10.20;;
27303;SDS011;14791;52.392;13.092;2022-11-15T01:33:29;13.33;;;12.27;;
27303;SDS011;14791;52.392;13.092;2022-11-15T01:36:19;13.27;;;12.23;;
27303;SDS011;14791;52.392;13.092;2022-11-15T01:39:08;11.47;;;10.67;;
27303;SDS011;14791;52.392;13.092;2022-11-15T01:41:55;11.23;;;10.43;;
27303;SDS011;14791;52.392;13.092;2022-11-15T01:44:44;11.60;;;10.70;;
27303;SDS011;14791;52.392;13.092;2022-11-15T01:47:40;12.13;;;11.13;;
27303;SDS011;14791;52.392;13.092;2022-11-15T01:50:32;9.87;;;9.27;;
27303;SDS011;14791;52.392;13.092;2022-11-15T01:53:19;12.13;;;11.23;;
27303;SDS011;14791;52.392;13.092;2022-11-15T01:56:11;12.37;;;11.37;;
27303;SDS011;14791;52.392;13.092;2022-11-15T01:59:00;12.23;;;11.23;;
27303;SDS011;14791;52.392;13.092;2022-11-15T02:01:49;15.17;;;13.83;;
27303;SDS011;14791;52.392;13.092;2022-11-15T02:04:45;11.53;;;10.63;;
27303;SDS011;14791;52.392;13.092;2022-11-15T02:07:34;8.93;;;8.33;;
27303;SDS011;14791;52.392;13.092;2022-11-15T02:10:22;13.43;;;12.27;;
27303;SDS011;14791;52.392;13.092;2022-11-15T02:13:10;14.33;;;13.13;;
27303;SDS011;14791;52.392;13.092;2022-11-15T02:19:25;11.97;;;10.97;;
27303;SDS011;14791;52.392;13.092;2022-11-15T02:22:37;9.57;;;8.87;;
27303;SDS011;14791;52.392;13.092;2022-11-15T02:25:33;8.47;;;7.97;;
27303;SDS011;14791;52.392;13.092;2022-11-15T02:28:24;8.87;;;8.37;;
27303;SDS011;14791;52.392;13.092;2022-11-15T02:31:30;11.97;;;10.97;;
27303;SDS011;14791;52.392;13.092;2022-11-15T02:34:42;12.33;;;11.43;;
27303;SDS011;14791;52.392;13.092;2022-11-15T02:41:02;12.27;;;11.30;;
27303;SDS011;14791;52.392;13.092;2022-11-15T02:46:45;13.43;;;12.33;;
27303;SDS011;14791;52.392;13.092;2022-11-15T02:49:52;11.27;;;10.37;;
27303;SDS011;14791;52.392;13.092;2022-11-15T02:52:40;12.53;;;11.57;;
27303;SDS011;14791;52.392;13.092;2022-11-15T02:55:41;11.00;;;10.13;;
27303;SDS011;14791;52.392;13.092;2022-11-15T03:04:19;13.83;;;12.73;;
27303;SDS011;14791;52.392;13.092;2022-11-15T03:07:20;13.93;;;12.83;;
27303;SDS011;14791;52.392;13.092;2022-11-15T03:13:26;11.77;;;10.93;;
27303;SDS011;14791;52.392;13.092;2022-11-15T03:16:15;11.80;;;10.87;;
27303;SDS011;14791;52.392;13.092;2022-11-15T03:22:33;12.00;;;11.10;;
27303;SDS011;14791;52.392;13.092;2022-11-15T03:25:21;13.57;;;12.53;;
27303;SDS011;14791;52.392;13.092;2022-11-15T03:28:11;12.50;;;11.50;;
27303;SDS011;14791;52.392;13.092;2022-11-15T03:31:01;13.77;;;12.67;;
27303;SDS011;14791;52.392;13.092;2022-11-15T03:33:51;13.27;;;12.17;;
27303;SDS011;14791;52.392;13.092;2022-11-15T03:36:41;15.10;;;13.70;;
27303;SDS011;14791;52.392;13.092;2022-11-15T03:39:29;13.13;;;12.10;;
27303;SDS011;14791;52.392;13.092;2022-11-15T03:48:18;12.07;;;11.07;;
27303;SDS011;14791;52.392;13.092;2022-11-15T03:51:10;12.00;;;10.97;;
27303;SDS011;14791;52.392;13.092;2022-11-15T03:53:57;13.70;;;12.60;;
27303;SDS011;14791;52.392;13.092;2022-11-15T03:56:44;11.37;;;10.57;;
27303;SDS011;14791;52.392;13.092;2022-11-15T03:59:30;14.83;;;13.53;;
27303;SDS011;14791;52.392;13.092;2022-11-15T04:02:17;14.00;;;12.90;;
27303;SDS011;14791;52.392;13.092;2022-11-15T04:05:05;12.13;;;11.20;;
27303;SDS011;14791;52.392;13.092;2022-11-15T04:07:52;13.30;;;12.27;;
27303;SDS011;14791;52.392;13.092;2022-11-15T04:10:39;13.90;;;12.70;;
27303;SDS011;14791;52.392;13.092;2022-11-15T04:13:26;14.33;;;13.23;;
27303;SDS011;14791;52.392;13.092;2022-11-15T04:16:13;12.57;;;11.60;;
27303;SDS011;14791;52.392;13.092;2022-11-15T04:18:59;13.77;;;12.67;;
27303;SDS011;14791;52.392;13.092;2022-11-15T04:22:04;13.90;;;12.67;;
27303;SDS011;14791;52.392;13.092;2022-11-15T04:25:11;12.47;;;11.43;;
27303;SDS011;14791;52.392;13.092;2022-11-15T04:27:58;11.83;;;10.93;;
27303;SDS011;14791;52.392;13.092;2022-11-15T04:30:45;12.03;;;11.13;;
27303;SDS011;14791;52.392;13.092;2022-11-15T04:33:32;13.37;;;12.27;;
27303;SDS011;14791;52.392;13.092;2022-11-15T04:36:19;13.73;;;12.53;;
27303;SDS011;14791;52.392;13.092;2022-11-15T04:39:24;10.47;;;9.67;;
27303;SDS011;14791;52.392;13.092;2022-11-15T04:42:11;10.80;;;9.90;;
27303;SDS011;14791;52.392;13.092;2022-11-15T04:44:58;12.03;;;11.13;;
27303;SDS011;14791;52.392;13.092;2022-11-15T04:47:45;10.33;;;9.53;;
27303;SDS011;14791;52.392;13.092;2022-11-15T04:50:32;11.47;;;10.67;;
27303;SDS011;14791;52.392;13.092;2022-11-15T04:53:19;10.80;;;10.00;;
27303;SDS011;14791;52.392;13.092;2022-11-15T04:56:06;13.27;;;12.17;;
27303;SDS011;14791;52.392;13.092;2022-11-15T04:58:53;11.73;;;10.83;;
27303;SDS011;14791;52.392;13.092;2022-11-15T05:01:40;11.00;;;10.20;;
27303;SDS011;14791;52.392;13.092;2022-11-15T05:04:27;12.90;;;11.90;;
27303;SDS011;14791;52.392;13.092;2022-11-15T05:07:13;13.17;;;12.10;;
27303;SDS011;14791;52.392;13.092;2022-11-15T05:10:00;10.50;;;9.70;;
27303;SDS011;14791;52.392;13.092;2022-11-15T05:12:48;10.43;;;9.73;;
27303;SDS011;14791;52.392;13.092;2022-11-15T05:15:35;12.10;;;11.10;;
27303;SDS011;14791;52.392;13.092;2022-11-15T05:18:21;11.97;;;10.90;;
27303;SDS011;14791;52.392;13.092;2022-11-15T05:21:12;12.90;;;11.70;;
27303;SDS011;14791;52.392;13.092;2022-11-15T05:24:00;11.70;;;10.90;;
27303;SDS011;14791;52.392;13.092;2022-11-15T05:26:47;11.83;;;10.73;;
27303;SDS011;14791;52.392;13.092;2022-11-15T05:29:34;9.37;;;8.67;;
27303;SDS011;14791;52.392;13.092;2022-11-15T05:32:21;9.73;;;8.97;;
27303;SDS011;14791;52.392;13.092;2022-11-15T05:35:12;11.83;;;11.00;;
27303;SDS011;14791;52.392;13.092;2022-11-15T05:37:59;12.70;;;11.67;;
27303;SDS011;14791;52.392;13.092;2022-11-15T05:40:46;12.07;;;11.07;;
27303;SDS011;14791;52.392;13.092;2022-11-15T05:43:33;14.70;;;13.03;;
27303;SDS011;14791;52.392;13.092;2022-11-15T05:46:23;12.83;;;11.73;;
27303;SDS011;14791;52.392;13.092;2022-11-15T05:49:11;13.17;;;12.07;;
27303;SDS011;14791;52.392;13.092;2022-11-15T05:52:00;15.17;;;13.77;;
27303;SDS011;14791;52.392;13.092;2022-11-15T05:54:50;18.17;;;16.37;;
27303;SDS011;14791;52.392;13.092;2022-11-15T05:57:38;15.30;;;13.77;;
27303;SDS011;14791;52.392;13.092;2022-11-15T06:00:25;14.73;;;13.40;;
27303;SDS011;14791;52.392;13.092;2022-11-15T06:03:12;14.97;;;13.70;;
27303;SDS011;14791;52.392;13.092;2022-11-15T06:05:59;11.73;;;10.80;;
27303;SDS011;14791;52.392;13.092;2022-11-15T06:08:46;13.20;;;12.27;;
27303;SDS011;14791;52.392;13.092;2022-11-15T06:11:32;11.97;;;11.07;;
27303;SDS011;14791;52.392;13.092;2022-11-15T06:14:19;11.87;;;10.90;;
27303;SDS011;14791;52.392;13.092;2022-11-15T06:17:06;13.23;;;12.17;;
27303;SDS011;14791;52.392;13.092;2022-11-15T06:19:53;14.07;;;12.90;;
27303;SDS011;14791;52.392;13.092;2022-11-15T06:22:40;15.00;;;13.60;;
27303;SDS011;14791;52.392;13.092;2022-11-15T06:25:27;14.93;;;13.63;;
27303;SDS011;14791;52.392;13.092;2022-11-15T06:28:15;13.13;;;11.97;;
27303;SDS011;14791;52.392;13.092;2022-11-15T06:31:03;15.57;;;14.07;;
27303;SDS011;14791;52.392;13.092;2022-11-15T06:33:51;10.87;;;10.10;;
27303;SDS011;14791;52.392;13.092;2022-11-15T06:36:38;14.10;;;12.90;;
27303;SDS011;14791;52.392;13.092;2022-11-15T06:39:24;13.73;;;12.43;;
27303;SDS011;14791;52.392;13.092;2022-11-15T06:42:11;14.87;;;13.47;;
27303;SDS011;14791;52.392;13.092;2022-11-15T06:44:58;13.63;;;12.23;;
27303;SDS011;14791;52.392;13.092;2022-11-15T06:47:46;14.10;;;12.60;;
27303;SDS011;14791;52.392;13.092;2022-11-15T06:50:33;14.27;;;12.97;;
27303;SDS011;14791;52.392;13.092;2022-11-15T06:53:20;12.40;;;11.30;;
27303;SDS011;14791;52.392;13.092;2022-11-15T06:56:06;16.63;;;14.63;;
27303;SDS011;14791;52.392;13.092;2022-11-15T06:58:54;14.53;;;13.00;;
27303;SDS011;14791;52.392;13.092;2022-11-15T07:01:41;14.30;;;12.83;;
27303;SDS011;14791;52.392;13.092;2022-11-15T07:04:29;12.63;;;11.63;;
27303;SDS011;14791;52.392;13.092;2022-11-15T07:07:15;13.43;;;12.23;;
27303;SDS011;14791;52.392;13.092;2022-11-15T07:10:02;15.10;;;13.63;;
27303;SDS011;14791;52.392;13.092;2022-11-15T07:12:51;14.53;;;13.20;;
27303;SDS011;14791;52.392;13.092;2022-11-15T07:15:38;14.87;;;13.60;;
27303;SDS011;14791;52.392;13.092;2022-11-15T07:18:25;11.93;;;11.00;;
27303;SDS011;14791;52.392;13.092;2022-11-15T07:21:12;11.90;;;11.03;;
27303;SDS011;14791;52.392;13.092;2022-11-15T07:23:58;13.60;;;12.43;;
27303;SDS011;14791;52.392;13.092;2022-11-15T07:26:45;11.57;;;10.57;;
27303;SDS011;14791;52.392;13.092;2022-11-15T07:29:32;11.10;;;10.20;;
27303;SDS011;14791;52.392;13.092;2022-11-15T07:32:19;14.57;;;13.20;;
27303;SDS011;14791;52.392;13.092;2022-11-15T07:35:06;14.67;;;13.23;;
27303;SDS011;14791;52.392;13.092;2022-11-15T07:37:57;14.87;;;13.40;;
27303;SDS011;14791;52.392;13.092;2022-11-15T07:40:45;14.93;;;13.53;;
27303;SDS011;14791;52.392;13.092;2022-11-15T07:43:33;14.77;;;13.47;;
27303;SDS011;14791;52.392;13.092;2022-11-15T07:46:20;12.27;;;11.00;;
27303;SDS011;14791;52.392;13.092;2022-11-15T07:49:07;11.40;;;10.47;;
27303;SDS011;14791;52.392;13.092;2022-11-15T07:51:54;10.37;;;9.60;;
27303;SDS011;14791;52.392;13.092;2022-11-15T07:54:40;10.33;;;9.53;;
27303;SDS011;14791;52.392;13.092;2022-11-15T07:57:27;11.03;;;10.27;;
27303;SDS011;14791;52.392;13.092;2022-11-15T08:00:15;9.27;;;8.53;;
27303;SDS011;14791;52.392;13.092;2022-11-15T08:03:07;13.40;;;12.30;;
27303;SDS011;14791;52.392;13.092;2022-11-15T08:05:56;13.67;;;12.43;;
27303;SDS011;14791;52.392;13.092;2022-11-15T08:08:43;12.70;;;11.60;;
27303;SDS011;14791;52.392;13.092;2022-11-15T08:11:30;12.87;;;11.70;;
27303;SDS011;14791;52.392;13.092;2022-11-15T08:14:16;12.63;;;11.73;;
27303;SDS011;14791;52.392;13.092;2022-11-15T08:17:03;9.67;;;8.90;;
27303;SDS011;14791;52.392;13.092;2022-11-15T08:19:50;7.17;;;6.83;;
27303;SDS011;14791;52.392;13.092;2022-11-15T08:22:37;8.27;;;7.77;;
27303;SDS011;14791;52.392;13.092;2022-11-15T08:25:24;11.10;;;10.27;;
27303;SDS011;14791;52.392;13.092;2022-11-15T08:28:12;11.77;;;10.87;;
27303;SDS011;14791;52.392;13.092;2022-11-15T08:31:02;9.23;;;8.53;;
27303;SDS011;14791;52.392;13.092;2022-11-15T08:33:50;11.33;;;10.43;;
27303;SDS011;14791;52.392;13.092;2022-11-15T08:36:37;9.23;;;8.63;;
27303;SDS011;14791;52.392;13.092;2022-11-15T08:39:23;8.67;;;8.17;;
27303;SDS011;14791;52.392;13.092;2022-11-15T08:42:10;11.60;;;10.70;;
27303;SDS011;14791;52.392;13.092;2022-11-15T08:44:59;10.83;;;10.03;;
27303;SDS011;14791;52.392;13.092;2022-11-15T08:47:45;11.57;;;10.63;;
27303;SDS011;14791;52.392;13.092;2022-11-15T08:50:32;10.83;;;10.03;;
27303;SDS011;14791;52.392;13.092;2022-11-15T08:53:19;11.07;;;10.17;;
27303;SDS011;14791;52.392;13.092;2022-11-15T08:56:07;9.33;;;8.73;;
27303;SDS011;14791;52.392;13.092;2022-11-15T08:58:55;9.43;;;8.73;;
27303;SDS011;14791;52.392;13.092;2022-11-15T09:01:42;11.47;;;10.57;;
27303;SDS011;14791;52.392;13.092;2022-11-15T09:04:28;10.13;;;9.33;;
27303;SDS011;14791;52.392;13.092;2022-11-15T09:07:16;8.10;;;7.70;;
27303;SDS011;14791;52.392;13.092;2022-11-15T09:10:03;10.77;;;9.93;;
27303;SDS011;14791;52.392;13.092;2022-11-15T09:12:50;9.87;;;8.97;;
27303;SDS011;14791;52.392;13.092;2022-11-15T09:15:37;10.07;;;9.37;;
27303;SDS011;14791;52.392;13.092;2022-11-15T09:18:24;7.13;;;6.83;;
27303;SDS011;14791;52.392;13.092;2022-11-15T09:21:11;6.83;;;6.43;;
27303;SDS011;14791;52.392;13.092;2022-11-15T09:23:58;8.50;;;7.97;;
27303;SDS011;14791;52.392;13.092;2022-11-15T09:26:45;8.33;;;7.80;;
27303;SDS011;14791;52.392;13.092;2022-11-15T09:29:32;9.23;;;8.63;;
27303;SDS011;14791;52.392;13.092;2022-11-15T09:32:19;8.77;;;8.07;;
27303;SDS011;14791;52.392;13.092;2022-11-15T09:35:08;9.43;;;8.73;;
27303;SDS011;14791;52.392;13.092;2022-11-15T09:37:54;7.03;;;6.63;;
27303;SDS011;14791;52.392;13.092;2022-11-15T09:40:43;7.37;;;6.97;;
27303;SDS011;14791;52.392;13.092;2022-11-15T09:43:44;10.13;;;9.43;;
27303;SDS011;14791;52.392;13.092;2022-11-15T09:46:48;9.97;;;9.27;;
27303;SDS011;14791;52.392;13.092;2022-11-15T09:49:24;8.07;;;7.57;;
27303;SDS011;14791;52.392;13.092;2022-11-15T09:52:04;8.60;;;7.97;;
27303;SDS011;14791;52.392;13.092;2022-11-15T09:54:35;7.70;;;7.10;;
27303;SDS011;14791;52.392;13.092;2022-11-15T09:57:10;8.40;;;7.80;;
27303;SDS011;14791;52.392;13.092;2022-11-15T09:59:55;7.67;;;7.27;;
27303;SDS011;14791;52.392;13.092;2022-11-15T10:02:39;7.07;;;6.60;;
27303;SDS011;14791;52.392;13.092;2022-11-15T10:05:09;8.47;;;7.77;;
27303;SDS011;14791;52.392;13.092;2022-11-15T10:07:44;8.53;;;8.03;;
27303;SDS011;14791;52.392;13.092;2022-11-15T10:13:07;8.97;;;8.33;;
27303;SDS011;14791;52.392;13.092;2022-11-15T10:15:43;8.80;;;8.17;;
27303;SDS011;14791;52.392;13.092;2022-11-15T10:18:27;8.90;;;8.30;;
27303;SDS011;14791;52.392;13.092;2022-11-15T10:20:58;8.60;;;8.17;;
27303;SDS011;14791;52.392;13.092;2022-11-15T10:23:29;8.17;;;7.67;;
27303;SDS011;14791;52.392;13.092;2022-11-15T10:26:00;7.60;;;7.20;;
27303;SDS011;14791;52.392;13.092;2022-11-15T10:28:30;8.10;;;7.60;;
27303;SDS011;14791;52.392;13.092;2022-11-15T10:30:59;6.87;;;6.57;;
27303;SDS011;14791;52.392;13.092;2022-11-15T10:33:32;8.20;;;7.70;;
27303;SDS011;14791;52.392;13.092;2022-11-15T10:41:21;7.27;;;6.87;;
27303;SDS011;14791;52.392;13.092;2022-11-15T10:44:02;7.70;;;7.00;;
27303;SDS011;14791;52.392;13.092;2022-11-15T10:46:42;7.83;;;7.33;;
27303;SDS011;14791;52.392;13.092;2022-11-15T10:49:19;6.03;;;5.77;;
27303;SDS011;14791;52.392;13.092;2022-11-15T10:51:56;6.73;;;6.43;;
27303;SDS011;14791;52.392;13.092;2022-11-15T10:54:27;7.23;;;6.83;;
27303;SDS011;14791;52.392;13.092;2022-11-15T10:57:06;6.70;;;6.37;;
27303;SDS011;14791;52.392;13.092;2022-11-15T10:59:46;5.87;;;5.60;;
27303;SDS011;14791;52.392;13.092;2022-11-15T11:02:27;6.73;;;6.43;;
27303;SDS011;14791;52.392;13.092;2022-11-15T11:04:58;5.83;;;5.63;;
27303;SDS011;14791;52.392;13.092;2022-11-15T11:07:31;6.97;;;6.67;;
27303;SDS011;14791;52.392;13.092;2022-11-15T11:10:20;6.23;;;6.03;;
27303;SDS011;14791;52.392;13.092;2022-11-15T11:12:49;6.93;;;6.63;;
27303;SDS011;14791;52.392;13.092;2022-11-15T11:15:18;7.37;;;6.77;;
27303;SDS011;14791;52.392;13.092;2022-11-15T11:17:53;5.80;;;5.53;;
27303;SDS011;14791;52.392;13.092;2022-11-15T11:23:16;6.23;;;5.73;;
27303;SDS011;14791;52.392;13.092;2022-11-15T11:25:52;5.50;;;5.20;;
27303;SDS011;14791;52.392;13.092;2022-11-15T11:28:39;5.40;;;5.13;;
27303;SDS011;14791;52.392;13.092;2022-11-15T11:31:18;4.33;;;4.13;;
27303;SDS011;14791;52.392;13.092;2022-11-15T11:34:04;5.93;;;5.63;;
27303;SDS011;14791;52.392;13.092;2022-11-15T11:48:12;6.17;;;5.78;;
27303;SDS011;14791;52.392;13.092;2022-11-15T11:50:44;6.73;;;6.33;;
27303;SDS011;14791;52.392;13.092;2022-11-15T11:53:28;5.50;;;5.20;;
27303;SDS011;14791;52.392;13.092;2022-11-15T11:56:02;6.47;;;6.13;;
27303;SDS011;14791;52.392;13.092;2022-11-15T11:58:41;6.60;;;6.30;;
27303;SDS011;14791;52.392;13.092;2022-11-15T12:03:56;5.83;;;5.47;;
27303;SDS011;14791;52.392;13.092;2022-11-15T12:09:29;4.53;;;4.40;;
27303;SDS011;14791;52.392;13.092;2022-11-15T12:12:23;5.70;;;5.40;;
27303;SDS011;14791;52.392;13.092;2022-11-15T12:15:22;3.50;;;3.40;;
27303;SDS011;14791;52.392;13.092;2022-11-15T12:17:48;3.80;;;3.62;;
27303;SDS011;14791;52.392;13.092;2022-11-15T12:20:19;4.92;;;4.67;;
27303;SDS011;14791;52.392;13.092;2022-11-15T12:25:46;5.37;;;5.08;;
27303;SDS011;14791;52.392;13.092;2022-11-15T12:31:11;5.15;;;4.95;;
27303;SDS011;14791;52.392;13.092;2022-11-15T12:33:55;5.03;;;4.83;;
27303;SDS011;14791;52.392;13.092;2022-11-15T12:39:06;4.28;;;4.08;;
27303;SDS011;14791;52.392;13.092;2022-11-15T12:41:38;5.75;;;5.45;;
27303;SDS011;14791;52.392;13.092;2022-11-15T12:44:12;5.05;;;4.75;;
27303;SDS011;14791;52.392;13.092;2022-11-15T12:59:47;4.35;;;4.25;;
27303;SDS011;14791;52.392;13.092;2022-11-15T13:02:30;3.83;;;3.72;;
27303;SDS011;14791;52.392;13.092;2022-11-15T13:13:03;3.77;;;3.67;;
27303;SDS011;14791;52.392;13.092;2022-11-15T13:15:35;4.15;;;3.95;;
27303;SDS011;14791;52.392;13.092;2022-11-15T13:20:54;4.28;;;3.92;;
27303;SDS011;14791;52.392;13.092;2022-11-15T13:23:25;4.47;;;4.28;;
27303;SDS011;14791;52.392;13.092;2022-11-15T13:28:28;3.65;;;3.55;;
27303;SDS011;14791;52.392;13.092;2022-11-15T13:31:03;3.58;;;3.47;;
27303;SDS011;14791;52.392;13.092;2022-11-15T13:33:34;3.52;;;3.42;;
27303;SDS011;14791;52.392;13.092;2022-11-15T13:36:29;2.98;;;2.87;;
27303;SDS011;14791;52.392;13.092;2022-11-15T13:39:06;3.70;;;3.60;;
27303;SDS011;14791;52.392;13.092;2022-11-15T13:41:53;3.42;;;3.33;;
27303;SDS011;14791;52.392;13.092;2022-11-15T13:44:23;4.25;;;4.05;;
27303;SDS011;14791;52.392;13.092;2022-11-15T13:47:03;4.97;;;4.83;;
27303;SDS011;14791;52.392;13.092;2022-11-15T13:49:34;4.10;;;4.00;;
27303;SDS011;14791;52.392;13.092;2022-11-15T13:52:05;4.05;;;3.87;;
27303;SDS011;14791;52.392;13.092;2022-11-15T13:57:21;3.30;;;3.20;;
27303;SDS011;14791;52.392;13.092;2022-11-15T13:59:59;4.75;;;4.55;;
27303;SDS011;14791;52.392;13.092;2022-11-15T14:02:27;4.35;;;4.20;;
27303;SDS011;14791;52.392;13.092;2022-11-15T14:05:05;4.20;;;4.10;;
27303;SDS011;14791;52.392;13.092;2022-11-15T14:07:55;2.98;;;2.87;;
27303;SDS011;14791;52.392;13.092;2022-11-15T14:10:30;3.27;;;3.17;;
27303;SDS011;14791;52.392;13.092;2022-11-15T14:13:04;3.40;;;3.20;;
27303;SDS011;14791;52.392;13.092;2022-11-15T14:15:37;3.45;;;3.35;;
27303;SDS011;14791;52.392;13.092;2022-11-15T14:18:38;3.85;;;3.65;;
27303;SDS011;14791;52.392;13.092;2022-11-15T14:20:38;3.77;;;3.58;;
27303;SDS011;14791;52.392;13.092;2022-11-15T14:23:27;4.45;;;4.15;;
27303;SDS011;14791;52.392;13.092;2022-11-15T14:25:56;4.08;;;3.85;;
27303;SDS011;14791;52.392;13.092;2022-11-15T14:31:00;4.35;;;4.08;;
27303;SDS011;14791;52.392;13.092;2022-11-15T14:33:29;4.30;;;4.20;;
27303;SDS011;14791;52.392;13.092;2022-11-15T14:36:04;5.15;;;4.87;;
27303;SDS011;14791;52.392;13.092;2022-11-15T14:38:35;4.95;;;4.65;;
27303;SDS011;14791;52.392;13.092;2022-11-15T14:41:04;5.37;;;5.17;;
27303;SDS011;14791;52.392;13.092;2022-11-15T14:43:33;5.58;;;5.28;;
27303;SDS011;14791;52.392;13.092;2022-11-15T14:46:01;4.37;;;4.08;;
27303;SDS011;14791;52.392;13.092;2022-11-15T14:48:31;4.22;;;3.92;;
27303;SDS011;14791;52.392;13.092;2022-11-15T14:51:00;4.60;;;4.40;;
27303;SDS011;14791;52.392;13.092;2022-11-15T14:53:29;4.97;;;4.55;;
27303;SDS011;14791;52.392;13.092;2022-11-15T14:55:57;4.40;;;4.20;;
27303;SDS011;14791;52.392;13.092;2022-11-15T14:58:26;4.72;;;4.42;;
27303;SDS011;14791;52.392;13.092;2022-11-15T15:00:55;4.92;;;4.72;;
27303;SDS011;14791;52.392;13.092;2022-11-15T15:03:24;4.72;;;4.53;;
27303;SDS011;14791;52.392;13.092;2022-11-15T15:05:53;4.25;;;4.10;;
27303;SDS011;14791;52.392;13.092;2022-11-15T15:08:23;4.40;;;4.20;;
27303;SDS011;14791;52.392;13.092;2022-11-15T15:10:52;4.85;;;4.55;;
27303;SDS011;14791;52.392;13.092;2022-11-15T15:13:22;5.30;;;4.97;;
27303;SDS011;14791;52.392;13.092;2022-11-15T15:15:52;5.87;;;5.58;;
27303;SDS011;14791;52.392;13.092;2022-11-15T15:18:20;5.50;;;5.30;;
27303;SDS011;14791;52.392;13.092;2022-11-15T15:20:56;6.58;;;6.20;;
27303;SDS011;14791;52.392;13.092;2022-11-15T15:23:34;6.60;;;6.20;;
27303;SDS011;14791;52.392;13.092;2022-11-15T15:26:06;7.25;;;6.95;;
27303;SDS011;14791;52.392;13.092;2022-11-15T15:28:35;5.95;;;5.65;;
27303;SDS011;14791;52.392;13.092;2022-11-15T15:31:05;5.55;;;5.35;;
27303;SDS011;14791;52.392;13.092;2022-11-15T15:33:36;5.80;;;5.55;;
27303;SDS011;14791;52.392;13.092;2022-11-15T15:36:09;7.15;;;6.75;;
27303;SDS011;14791;52.392;13.092;2022-11-15T15:38:59;8.03;;;7.43;;
27303;SDS011;14791;52.392;13.092;2022-11-15T15:41:28;7.08;;;6.67;;
27303;SDS011;14791;52.392;13.092;2022-11-15T15:43:57;7.45;;;7.05;;
27303;SDS011;14791;52.392;13.092;2022-11-15T15:46:26;8.00;;;7.60;;
27303;SDS011;14791;52.392;13.092;2022-11-15T15:48:54;7.60;;;7.15;;
27303;SDS011;14791;52.392;13.092;2022-11-15T15:51:23;6.83;;;6.43;;
27303;SDS011;14791;52.392;13.092;2022-11-15T15:53:52;8.00;;;7.30;;
27303;SDS011;14791;52.392;13.092;2022-11-15T15:56:23;8.13;;;7.70;;
27303;SDS011;14791;52.392;13.092;2022-11-15T15:58:52;8.20;;;7.70;;
27303;SDS011;14791;52.392;13.092;2022-11-15T16:01:22;8.13;;;7.73;;
27303;SDS011;14791;52.392;13.092;2022-11-15T16:03:51;7.67;;;7.13;;
27303;SDS011;14791;52.392;13.092;2022-11-15T16:06:37;7.00;;;6.70;;
27303;SDS011;14791;52.392;13.092;2022-11-15T16:09:09;6.17;;;5.87;;
27303;SDS011;14791;52.392;13.092;2022-11-15T16:11:41;6.93;;;6.63;;
27303;SDS011;14791;52.392;13.092;2022-11-15T16:14:12;8.20;;;7.70;;
27303;SDS011;14791;52.392;13.092;2022-11-15T16:16:41;7.20;;;6.70;;
27303;SDS011;14791;52.392;13.092;2022-11-15T16:19:10;7.20;;;6.80;;
27303;SDS011;14791;52.392;13.092;2022-11-15T16:21:39;6.03;;;5.63;;
27303;SDS011;14791;52.392;13.092;2022-11-15T16:24:08;7.03;;;6.63;;
27303;SDS011;14791;52.392;13.092;2022-11-15T16:26:37;6.83;;;6.53;;
27303;SDS011;14791;52.392;13.092;2022-11-15T16:29:07;8.70;;;8.10;;
27303;SDS011;14791;52.392;13.092;2022-11-15T16:31:37;7.73;;;7.27;;
27303;SDS011;14791;52.392;13.092;2022-11-15T16:34:08;7.87;;;7.47;;
27303;SDS011;14791;52.392;13.092;2022-11-15T16:36:37;7.07;;;6.67;;
27303;SDS011;14791;52.392;13.092;2022-11-15T16:39:08;7.73;;;7.37;;
27303;SDS011;14791;52.392;13.092;2022-11-15T16:41:40;7.60;;;7.13;;
27303;SDS011;14791;52.392;13.092;2022-11-15T16:44:11;8.33;;;7.77;;
27303;SDS011;14791;52.392;13.092;2022-11-15T16:46:41;7.47;;;7.07;;
27303;SDS011;14791;52.392;13.092;2022-11-15T16:49:12;8.37;;;7.87;;
27303;SDS011;14791;52.392;13.092;2022-11-15T16:51:42;7.63;;;7.03;;
27303;SDS011;14791;52.392;13.092;2022-11-15T16:54:13;7.77;;;7.37;;
27303;SDS011;14791;52.392;13.092;2022-11-15T16:56:43;8.10;;;7.70;;
27303;SDS011;14791;52.392;13.092;2022-11-15T16:59:15;6.83;;;6.43;;
27303;SDS011;14791;52.392;13.092;2022-11-15T17:01:46;7.50;;;7.10;;
27303;SDS011;14791;52.392;13.092;2022-11-15T17:04:18;6.83;;;6.53;;
27303;SDS011;14791;52.392;13.092;2022-11-15T17:06:48;7.30;;;7.00;;
27303;SDS011;14791;52.392;13.092;2022-11-15T17:09:22;8.47;;;7.80;;
27303;SDS011;14791;52.392;13.092;2022-11-15T17:11:50;9.07;;;8.47;;
27303;SDS011;14791;52.392;13.092;2022-11-15T17:14:20;8.20;;;7.70;;
27303;SDS011;14791;52.392;13.092;2022-11-15T17:16:49;7.63;;;7.23;;
27303;SDS011;14791;52.392;13.092;2022-11-15T17:19:18;6.87;;;6.53;;
27303;SDS011;14791;52.392;13.092;2022-11-15T17:21:48;9.17;;;8.57;;
27303;SDS011;14791;52.392;13.092;2022-11-15T17:24:17;10.37;;;9.67;;
27303;SDS011;14791;52.392;13.092;2022-11-15T17:26:46;11.30;;;10.40;;